Time;durP1;ratioP1;P1;durP2;ratioP2;P2;SDS_P1;SDS_P2;PMS_P1;PMS_P2;Temp;Humidity;BMP_temperature;BMP_pressure;BME280_temperature;BME280_humidity;BME280_pressure;Samples;Min_cycle;Max_cycle;Signal;HPM_P1;HPM_P2
2022/05/28 00:02:02;;;;;;;5.60;5.20;;;;;;;;;;5126628;27;20686;-80
2022/05/28 00:04:29;;;;;;;7.77;4.60;;;;;;;;;;5126261;28;20223;-80
2022/05/28 00:06:57;;;;;;;5.73;5.00;;;;;;;;;;5129029;27;20195;-80
2022/05/28 00:09:24;;;;;;;5.80;5.00;;;;;;;;;;5132792;27;20198;-80
2022/05/28 00:11:52;;;;;;;5.60;5.03;;;;;;;;;;5132666;28;20226;-80
2022/05/28 00:14:19;;;;;;;4.60;4.30;;;;;;;;;;5132743;28;20585;-80
2022/05/28 00:16:46;;;;;;;5.20;4.67;;;;;;;;;;5132924;27;20247;-80
2022/05/28 00:19:13;;;;;;;5.43;4.43;;;;;;;;;;5133000;27;20560;-80
2022/05/28 00:21:40;;;;;;;6.83;5.27;;;;;;;;;;5133055;27;20191;-80
2022/05/28 00:24:09;;;;;;;5.50;5.07;;;;;;;;;;5132775;27;20762;-80
2022/05/28 00:26:36;;;;;;;4.73;4.33;;;;;;;;;;5132462;27;20190;-80
2022/05/28 00:29:03;;;;;;;8.07;6.13;;;;;;;;;;5130774;28;20631;-79
2022/05/28 00:31:30;;;;;;;5.53;5.03;;;;;;;;;;5112129;28;20605;-80
2022/05/28 00:33:57;;;;;;;5.37;4.87;;;;;;;;;;5111948;28;20687;-80
2022/05/28 00:36:24;;;;;;;5.50;5.03;;;;;;;;;;5112119;28;20200;-80
2022/05/28 00:38:51;;;;;;;7.17;6.47;;;;;;;;;;5111603;28;20214;-80
2022/05/28 00:41:20;;;;;;;6.20;5.70;;;;;;;;;;5112058;28;20200;-80
2022/05/28 00:43:47;;;;;;;6.27;5.77;;;;;;;;;;5112155;28;20223;-80
2022/05/28 00:46:17;;;;;;;6.93;6.30;;;;;;;;;;5111679;28;20200;-80
2022/05/28 00:48:46;;;;;;;6.20;5.70;;;;;;;;;;5112104;28;20199;-80
2022/05/28 00:51:16;;;;;;;7.20;6.60;;;;;;;;;;5112249;28;20273;-80
2022/05/28 00:53:43;;;;;;;6.53;6.03;;;;;;;;;;5112186;28;20196;-80
2022/05/28 00:56:11;;;;;;;6.60;6.07;;;;;;;;;;5111960;28;20683;-80
2022/05/28 00:58:39;;;;;;;6.90;6.40;;;;;;;;;;5093717;28;20204;-80
2022/05/28 01:01:08;;;;;;;8.40;7.63;;;;;;;;;;5095781;28;20193;-80
2022/05/28 01:03:42;;;;;;;7.50;6.90;;;;;;;;;;5095125;28;20223;-80
2022/05/28 01:06:13;;;;;;;6.27;5.77;;;;;;;;;;5095239;28;20260;-80
2022/05/28 01:08:44;;;;;;;6.40;5.90;;;;;;;;;;5095137;28;20188;-80
2022/05/28 01:11:19;;;;;;;6.50;6.00;;;;;;;;;;5095257;28;20188;-79
2022/05/28 01:13:52;;;;;;;6.77;6.07;;;;;;;;;;5095215;28;20560;-80
2022/05/28 01:16:24;;;;;;;7.03;6.43;;;;;;;;;;5095140;28;20647;-80
2022/05/28 01:18:53;;;;;;;6.13;5.73;;;;;;;;;;5095259;28;20635;-79
2022/05/28 01:21:31;;;;;;;6.73;6.23;;;;;;;;;;5095145;28;20196;-79
2022/05/28 01:24:06;;;;;;;8.30;6.57;;;;;;;;;;5095131;28;20208;-80
2022/05/28 01:26:44;;;;;;;7.10;6.40;;;;;;;;;;5095322;28;20195;-79
2022/05/28 01:29:13;;;;;;;6.00;5.60;;;;;;;;;;5095028;28;20189;-79
2022/05/28 01:31:41;;;;;;;5.93;5.13;;;;;;;;;;5094942;28;20196;-80
2022/05/28 01:34:09;;;;;;;6.77;6.30;;;;;;;;;;5094369;28;20207;-80
2022/05/28 01:36:37;;;;;;;7.73;7.13;;;;;;;;;;5094832;28;20204;-80
2022/05/28 01:39:05;;;;;;;7.40;6.90;;;;;;;;;;5094809;28;20203;-79
2022/05/28 01:41:34;;;;;;;7.33;6.47;;;;;;;;;;5094383;28;20256;-80
2022/05/28 01:44:03;;;;;;;8.23;7.53;;;;;;;;;;5094306;28;20714;-79
2022/05/28 01:46:31;;;;;;;7.57;6.77;;;;;;;;;;5094969;28;20204;-79
2022/05/28 01:48:59;;;;;;;6.80;6.30;;;;;;;;;;5094363;28;20193;-80
2022/05/28 01:51:30;;;;;;;7.53;7.03;;;;;;;;;;5094575;28;20196;-80
2022/05/28 01:54:11;;;;;;;7.10;6.50;;;;;;;;;;5094599;28;20234;-80
2022/05/28 01:56:43;;;;;;;7.47;6.43;;;;;;;;;;5094744;28;20288;-80
2022/05/28 01:59:12;;;;;;;6.37;5.77;;;;;;;;;;5094498;28;20204;-80
2022/05/28 02:01:39;;;;;;;7.17;6.57;;;;;;;;;;5094450;28;20199;-80
2022/05/28 02:04:07;;;;;;;7.27;6.70;;;;;;;;;;5093861;28;20646;-80
2022/05/28 02:06:35;;;;;;;6.87;6.37;;;;;;;;;;5094596;28;20200;-79
2022/05/28 02:09:04;;;;;;;7.40;6.77;;;;;;;;;;5094126;28;20199;-80
2022/05/28 02:11:44;;;;;;;7.97;6.97;;;;;;;;;;5093636;28;20197;-79
2022/05/28 02:14:22;;;;;;;12.20;6.83;;;;;;;;;;5094168;28;20273;-80
2022/05/28 02:16:52;;;;;;;7.17;6.57;;;;;;;;;;5094150;28;20279;-80
2022/05/28 02:19:26;;;;;;;6.83;6.33;;;;;;;;;;5093762;28;20227;-80
2022/05/28 02:21:58;;;;;;;6.50;6.00;;;;;;;;;;5094259;28;20188;-79
2022/05/28 02:24:29;;;;;;;6.90;6.30;;;;;;;;;;5093619;28;20207;-80
2022/05/28 02:27:01;;;;;;;6.70;6.10;;;;;;;;;;5094037;28;20238;-80
2022/05/28 02:29:30;;;;;;;7.47;6.77;;;;;;;;;;5108610;28;20199;-79
2022/05/28 02:31:57;;;;;;;7.13;6.27;;;;;;;;;;5114408;28;20315;-79
2022/05/28 02:34:24;;;;;;;7.27;6.60;;;;;;;;;;5113824;27;20675;-79
2022/05/28 02:36:52;;;;;;;7.97;6.40;;;;;;;;;;5114307;28;20199;-80
2022/05/28 02:39:20;;;;;;;7.73;6.63;;;;;;;;;;5113423;28;20559;-80
2022/05/28 02:41:47;;;;;;;68.23;13.73;;;;;;;;;;5113904;27;20206;-79
2022/05/28 02:44:14;;;;;;;26.27;7.67;;;;;;;;;;5113780;28;20223;-79
2022/05/28 02:46:42;;;;;;;7.37;6.87;;;;;;;;;;5114167;27;20198;-79
2022/05/28 02:49:09;;;;;;;7.90;7.10;;;;;;;;;;5113281;28;20198;-80
2022/05/28 02:51:37;;;;;;;6.83;6.33;;;;;;;;;;5111829;27;20207;-80
2022/05/28 02:54:04;;;;;;;9.87;7.53;;;;;;;;;;5113586;28;20576;-79
2022/05/28 02:56:31;;;;;;;6.63;6.13;;;;;;;;;;5113488;28;20210;-79
2022/05/28 02:58:58;;;;;;;8.20;7.50;;;;;;;;;;5113302;28;20202;-80
2022/05/28 03:01:27;;;;;;;7.60;7.00;;;;;;;;;;5113557;28;20202;-80
2022/05/28 03:03:57;;;;;;;8.53;7.73;;;;;;;;;;5113105;28;20646;-79
2022/05/28 03:06:24;;;;;;;8.60;7.70;;;;;;;;;;5113595;28;20199;-79
2022/05/28 03:08:51;;;;;;;7.60;6.90;;;;;;;;;;5113060;28;20228;-79
2022/05/28 03:11:18;;;;;;;7.87;7.20;;;;;;;;;;5112739;28;20722;-79
2022/05/28 03:13:45;;;;;;;7.20;6.63;;;;;;;;;;5113174;27;20569;-79
2022/05/28 03:16:12;;;;;;;6.77;6.27;;;;;;;;;;5113439;28;20206;-79
2022/05/28 03:18:39;;;;;;;7.30;6.70;;;;;;;;;;5112540;28;20612;-79
2022/05/28 03:21:08;;;;;;;7.83;7.13;;;;;;;;;;5112987;28;20241;-79
2022/05/28 03:23:36;;;;;;;7.20;6.60;;;;;;;;;;5112279;28;20255;-79
2022/05/28 03:26:12;;;;;;;7.87;7.30;;;;;;;;;;5112976;28;20202;-79
2022/05/28 03:28:39;;;;;;;7.80;7.17;;;;;;;;;;5112730;28;20193;-79
2022/05/28 03:31:06;;;;;;;6.60;6.00;;;;;;;;;;5112834;28;20730;-79
2022/05/28 03:33:34;;;;;;;7.33;6.73;;;;;;;;;;5112832;28;20611;-79
2022/05/28 03:36:01;;;;;;;8.50;7.70;;;;;;;;;;5112427;28;20214;-79
2022/05/28 03:38:29;;;;;;;7.87;7.37;;;;;;;;;;5112572;28;20209;-79
2022/05/28 03:40:58;;;;;;;8.87;8.27;;;;;;;;;;5112720;28;20199;-79
2022/05/28 03:43:25;;;;;;;7.80;7.20;;;;;;;;;;5112191;28;20210;-80
2022/05/28 03:45:52;;;;;;;7.97;7.47;;;;;;;;;;5112557;28;20238;-79
2022/05/28 03:48:19;;;;;;;8.63;7.93;;;;;;;;;;5112433;28;20247;-79
2022/05/28 03:50:46;;;;;;;8.63;7.53;;;;;;;;;;5112390;28;20202;-79
2022/05/28 03:53:13;;;;;;;7.53;6.93;;;;;;;;;;5112383;28;20205;-79
2022/05/28 03:55:42;;;;;;;7.40;6.80;;;;;;;;;;5112445;28;20266;-79
2022/05/28 03:58:09;;;;;;;8.60;7.70;;;;;;;;;;5112233;28;20318;-79
2022/05/28 04:00:37;;;;;;;9.30;7.77;;;;;;;;;;5112663;28;20190;-79
2022/05/28 04:03:04;;;;;;;8.63;7.83;;;;;;;;;;5112049;28;20636;-79
2022/05/28 04:05:31;;;;;;;7.90;7.00;;;;;;;;;;5112434;28;20771;-79
2022/05/28 04:07:58;;;;;;;8.73;7.37;;;;;;;;;;5111941;28;20212;-79
2022/05/28 04:10:25;;;;;;;8.20;7.60;;;;;;;;;;5112243;28;20198;-80
2022/05/28 04:12:54;;;;;;;8.23;7.23;;;;;;;;;;5111796;28;20236;-79
2022/05/28 04:15:22;;;;;;;8.13;7.53;;;;;;;;;;5111914;28;20621;-80
2022/05/28 04:17:49;;;;;;;8.30;7.70;;;;;;;;;;5111820;28;20237;-80
2022/05/28 04:20:16;;;;;;;9.67;8.67;;;;;;;;;;5112526;28;20206;-79
2022/05/28 04:22:43;;;;;;;7.87;7.17;;;;;;;;;;5111779;28;20206;-80
2022/05/28 04:25:11;;;;;;;8.20;7.60;;;;;;;;;;5111754;28;20211;-80
2022/05/28 04:27:41;;;;;;;8.93;8.07;;;;;;;;;;5111868;28;20199;-79
2022/05/28 04:30:10;;;;;;;7.83;7.13;;;;;;;;;;5112170;28;20197;-79
2022/05/28 04:32:38;;;;;;;8.10;7.47;;;;;;;;;;5112182;28;20202;-79
2022/05/28 04:35:05;;;;;;;8.50;7.90;;;;;;;;;;5115361;28;20202;-80
2022/05/28 04:37:32;;;;;;;8.40;7.63;;;;;;;;;;5115936;28;20206;-79
2022/05/28 04:39:59;;;;;;;9.57;8.70;;;;;;;;;;5116192;28;20256;-80
2022/05/28 04:42:26;;;;;;;8.77;7.83;;;;;;;;;;5115849;28;20675;-80
2022/05/28 04:44:56;;;;;;;12.93;8.57;;;;;;;;;;5115940;28;20223;-80
2022/05/28 04:47:25;;;;;;;9.40;8.43;;;;;;;;;;5115421;28;20199;-79
2022/05/28 04:49:53;;;;;;;8.90;8.10;;;;;;;;;;5112202;27;20634;-80
2022/05/28 04:52:21;;;;;;;10.27;8.17;;;;;;;;;;5125164;27;20575;-79
2022/05/28 04:54:48;;;;;;;9.50;8.80;;;;;;;;;;5115942;28;20216;-79
2022/05/28 04:57:15;;;;;;;8.63;8.03;;;;;;;;;;5115610;28;20195;-79
2022/05/28 04:59:42;;;;;;;9.10;8.30;;;;;;;;;;5115946;28;20252;-79
2022/05/28 05:02:09;;;;;;;9.03;8.33;;;;;;;;;;5115615;28;20252;-79
2022/05/28 05:04:37;;;;;;;8.63;8.00;;;;;;;;;;5115622;28;20253;-79
2022/05/28 05:07:05;;;;;;;9.00;8.17;;;;;;;;;;5122420;27;20203;-79
2022/05/28 05:09:32;;;;;;;9.00;8.23;;;;;;;;;;5135861;27;20390;-79
2022/05/28 05:11:59;;;;;;;10.20;9.10;;;;;;;;;;5136100;27;20230;-79
2022/05/28 05:14:26;;;;;;;10.10;8.60;;;;;;;;;;5136175;27;20248;-79
2022/05/28 05:16:53;;;;;;;9.40;8.70;;;;;;;;;;5136081;27;20198;-80
2022/05/28 05:19:20;;;;;;;9.67;7.83;;;;;;;;;;5135717;27;20194;-80
2022/05/28 05:21:49;;;;;;;9.20;8.50;;;;;;;;;;5135906;27;20679;-79
2022/05/28 05:24:16;;;;;;;11.43;10.47;;;;;;;;;;5135516;27;20755;-80
2022/05/28 05:26:43;;;;;;;8.53;7.73;;;;;;;;;;5135648;27;20214;-79
2022/05/28 05:29:10;;;;;;;8.30;7.60;;;;;;;;;;5135870;27;20233;-79
2022/05/28 05:31:37;;;;;;;9.20;8.30;;;;;;;;;;5135740;27;20226;-79
2022/05/28 05:34:05;;;;;;;8.87;8.17;;;;;;;;;;5135259;27;20329;-79
2022/05/28 05:36:32;;;;;;;9.40;8.20;;;;;;;;;;5135722;27;20195;-80
2022/05/28 05:39:00;;;;;;;9.60;8.50;;;;;;;;;;5124897;27;20206;-79
2022/05/28 05:41:27;;;;;;;9.00;8.13;;;;;;;;;;5124070;27;20731;-80
2022/05/28 05:43:54;;;;;;;11.07;9.00;;;;;;;;;;5131435;27;20331;-79
2022/05/28 05:46:21;;;;;;;9.63;8.93;;;;;;;;;;5114847;27;20302;-79
2022/05/28 05:48:48;;;;;;;9.53;8.53;;;;;;;;;;5112630;27;20227;-79
2022/05/28 05:51:17;;;;;;;9.90;8.87;;;;;;;;;;5116943;27;20753;-79
2022/05/28 05:53:44;;;;;;;11.13;7.83;;;;;;;;;;5114580;28;20239;-80
2022/05/28 05:56:13;;;;;;;7.80;7.00;;;;;;;;;;5128469;27;20199;-79
2022/05/28 05:58:40;;;;;;;6.83;6.23;;;;;;;;;;5130495;27;20207;-79
2022/05/28 06:01:08;;;;;;;11.00;6.70;;;;;;;;;;5115909;27;20200;-80
2022/05/28 06:03:35;;;;;;;7.97;6.60;;;;;;;;;;5119683;27;20206;-79
2022/05/28 06:06:03;;;;;;;19.10;6.97;;;;;;;;;;5116246;27;20273;-79
2022/05/28 06:08:30;;;;;;;9.97;6.67;;;;;;;;;;5115251;27;20655;-79
2022/05/28 06:10:57;;;;;;;6.67;5.93;;;;;;;;;;5119197;27;20260;-79
2022/05/28 06:13:26;;;;;;;30.37;10.57;;;;;;;;;;5133069;27;20280;-79
2022/05/28 06:15:53;;;;;;;8.53;7.50;;;;;;;;;;5129004;27;20194;-80
2022/05/28 06:18:20;;;;;;;8.70;7.03;;;;;;;;;;5114422;28;20196;-80
2022/05/28 06:20:49;;;;;;;22.30;8.47;;;;;;;;;;5125959;27;20252;-79
2022/05/28 06:23:16;;;;;;;7.97;6.13;;;;;;;;;;5116953;27;20231;-79
2022/05/28 06:25:43;;;;;;;7.03;6.53;;;;;;;;;;5114083;27;20227;-79
2022/05/28 06:28:10;;;;;;;6.93;6.33;;;;;;;;;;5120565;27;20202;-80
2022/05/28 06:30:40;;;;;;;6.90;6.20;;;;;;;;;;5130506;27;20255;-80
2022/05/28 06:33:07;;;;;;;8.30;6.43;;;;;;;;;;5119042;27;20294;-84
2022/05/28 06:35:34;;;;;;;7.77;7.07;;;;;;;;;;5129658;27;20202;-80
2022/05/28 06:38:01;;;;;;;7.87;6.43;;;;;;;;;;5124512;27;20259;-80
2022/05/28 06:40:28;;;;;;;7.13;6.40;;;;;;;;;;5134668;27;20231;-80
2022/05/28 06:42:56;;;;;;;7.57;6.80;;;;;;;;;;5122960;27;20199;-79
2022/05/28 06:45:24;;;;;;;7.10;6.17;;;;;;;;;;5113144;27;20766;-79
2022/05/28 06:47:52;;;;;;;6.17;5.57;;;;;;;;;;5124630;27;20238;-79
2022/05/28 06:53:07;;;;;;;7.53;5.77;;;;;;;;;;5123829;27;20205;-80
2022/05/28 06:55:35;;;;;;;8.53;5.80;;;;;;;;;;5134017;27;20247;-80
2022/05/28 06:58:02;;;;;;;6.03;5.37;;;;;;;;;;5133199;27;20701;-80
2022/05/28 07:00:29;;;;;;;10.53;5.87;;;;;;;;;;5134349;27;20202;-80
2022/05/28 07:02:57;;;;;;;6.67;5.13;;;;;;;;;;5133500;27;20701;-80
2022/05/28 07:05:25;;;;;;;5.67;5.10;;;;;;;;;;5134174;27;20214;-81
2022/05/28 07:07:52;;;;;;;7.93;5.20;;;;;;;;;;5133952;27;20659;-80
2022/05/28 07:10:19;;;;;;;5.73;4.83;;;;;;;;;;5134125;27;20216;-80
2022/05/28 07:12:46;;;;;;;9.97;4.97;;;;;;;;;;5133099;27;20347;-80
2022/05/28 07:15:14;;;;;;;5.30;4.50;;;;;;;;;;5133993;27;20199;-79
2022/05/28 07:17:41;;;;;;;20.70;6.83;;;;;;;;;;5133740;27;20194;-79
2022/05/28 07:20:11;;;;;;;32.10;9.57;;;;;;;;;;5133580;27;20224;-80
2022/05/28 07:22:38;;;;;;;8.03;5.60;;;;;;;;;;5133583;27;20260;-80
2022/05/28 07:25:07;;;;;;;6.97;4.53;;;;;;;;;;5133387;27;20222;-80
2022/05/28 07:27:34;;;;;;;3.97;3.63;;;;;;;;;;5133611;27;20237;-80
2022/05/28 07:30:01;;;;;;;8.20;5.13;;;;;;;;;;5133135;27;20244;-80
2022/05/28 07:32:30;;;;;;;8.97;4.90;;;;;;;;;;5133259;27;20205;-80
2022/05/28 07:34:57;;;;;;;22.57;6.60;;;;;;;;;;5133353;27;20198;-80
2022/05/28 07:37:26;;;;;;;6.87;5.00;;;;;;;;;;5133295;27;20251;-80
2022/05/28 07:39:53;;;;;;;9.30;5.23;;;;;;;;;;5133618;27;20232;-80
2022/05/28 07:42:20;;;;;;;11.27;5.63;;;;;;;;;;5133145;27;20191;-80
2022/05/28 07:44:47;;;;;;;17.40;5.83;;;;;;;;;;5133116;27;20706;-80
2022/05/28 07:47:14;;;;;;;6.03;4.47;;;;;;;;;;5133117;27;20694;-83
2022/05/28 07:49:41;;;;;;;10.37;5.10;;;;;;;;;;5133320;27;20195;-81
2022/05/28 07:52:08;;;;;;;8.97;5.03;;;;;;;;;;5133388;27;20191;-81
2022/05/28 07:54:37;;;;;;;10.90;5.13;;;;;;;;;;5133296;27;20263;-81
2022/05/28 07:57:05;;;;;;;12.17;5.33;;;;;;;;;;5132785;27;20731;-80
2022/05/28 07:59:32;;;;;;;13.90;5.60;;;;;;;;;;5132801;27;20194;-80
2022/05/28 08:01:59;;;;;;;5.53;5.00;;;;;;;;;;5133206;27;20215;-80
2022/05/28 08:04:26;;;;;;;9.97;5.40;;;;;;;;;;5132531;27;20318;-81
2022/05/28 08:06:53;;;;;;;8.13;6.63;;;;;;;;;;5132824;27;20223;-81
2022/05/28 08:09:20;;;;;;;13.07;5.63;;;;;;;;;;5132482;27;20229;-80
2022/05/28 08:11:48;;;;;;;5.73;5.17;;;;;;;;;;5132765;27;20230;-80
2022/05/28 08:14:15;;;;;;;10.57;5.80;;;;;;;;;;5132813;27;20198;-81
2022/05/28 08:16:42;;;;;;;10.10;5.87;;;;;;;;;;5132989;27;20187;-80
2022/05/28 08:19:09;;;;;;;7.23;5.17;;;;;;;;;;5133066;27;20243;-81
2022/05/28 08:24:20;;;;;;;6.47;5.27;;;;;;;;;;5132468;28;20185;-80
2022/05/28 08:26:49;;;;;;;12.73;4.97;;;;;;;;;;5132697;27;20737;-81
2022/05/28 08:29:16;;;;;;;7.87;4.77;;;;;;;;;;5132692;27;20195;-80
2022/05/28 08:31:43;;;;;;;7.37;5.13;;;;;;;;;;5132468;27;20221;-81
2022/05/28 08:34:10;;;;;;;6.73;5.43;;;;;;;;;;5123261;27;20203;-80
2022/05/28 08:36:37;;;;;;;6.60;5.73;;;;;;;;;;5112159;28;20195;-81
2022/05/28 08:39:04;;;;;;;7.87;5.13;;;;;;;;;;5111639;28;20316;-79
2022/05/28 08:41:36;;;;;;;6.97;5.10;;;;;;;;;;5118611;28;20208;-80
2022/05/28 08:44:13;;;;;;;9.40;5.00;;;;;;;;;;5132447;28;20212;-80
2022/05/28 08:46:43;;;;;;;7.30;5.43;;;;;;;;;;5132636;28;20206;-80
2022/05/28 08:49:11;;;;;;;10.27;7.57;;;;;;;;;;5119116;27;20207;-80
2022/05/28 08:51:41;;;;;;;11.57;9.03;;;;;;;;;;5111934;28;20256;-81
2022/05/28 08:54:11;;;;;;;14.60;9.50;;;;;;;;;;5111485;28;20191;-80
2022/05/28 08:56:39;;;;;;;11.80;10.27;;;;;;;;;;5111581;28;20690;-81
2022/05/28 08:59:12;;;;;;;11.23;10.07;;;;;;;;;;5111311;28;20223;-81
2022/05/28 09:01:41;;;;;;;9.67;8.73;;;;;;;;;;5099852;28;20250;-81
2022/05/28 09:04:12;;;;;;;11.13;9.67;;;;;;;;;;5091775;28;20230;-81
2022/05/28 09:06:43;;;;;;;9.87;8.97;;;;;;;;;;5091366;28;20212;-81
2022/05/28 09:09:12;;;;;;;9.60;8.90;;;;;;;;;;5091745;28;20185;-81
2022/05/28 09:11:43;;;;;;;10.23;9.13;;;;;;;;;;5091250;28;20192;-81
2022/05/28 09:14:19;;;;;;;10.43;9.43;;;;;;;;;;5091645;28;20188;-81
2022/05/28 09:16:46;;;;;;;16.43;10.70;;;;;;;;;;5091743;28;20241;-80
2022/05/28 09:19:17;;;;;;;11.93;10.73;;;;;;;;;;5091659;28;20692;-80
2022/05/28 09:21:45;;;;;;;11.70;10.60;;;;;;;;;;5095065;28;20181;-80
2022/05/28 09:24:15;;;;;;;12.57;10.73;;;;;;;;;;5094901;28;20283;-80
2022/05/28 09:26:58;;;;;;;11.40;9.83;;;;;;;;;;5095192;28;20222;-80
2022/05/28 09:29:36;;;;;;;11.23;10.23;;;;;;;;;;5095171;28;20191;-80
2022/05/28 09:32:08;;;;;;;11.93;10.83;;;;;;;;;;5094877;28;20222;-81
2022/05/28 09:34:44;;;;;;;11.63;10.43;;;;;;;;;;5095186;28;20185;-81
2022/05/28 09:37:17;;;;;;;12.37;11.47;;;;;;;;;;5095148;28;20571;-80
2022/05/28 09:39:50;;;;;;;12.43;10.83;;;;;;;;;;5095045;28;20257;-81
2022/05/28 09:42:25;;;;;;;10.93;9.80;;;;;;;;;;5094826;28;20660;-80
2022/05/28 09:45:09;;;;;;;9.90;9.00;;;;;;;;;;5094585;28;20187;-80
2022/05/28 09:47:47;;;;;;;9.33;8.43;;;;;;;;;;5094737;28;20204;-81
2022/05/28 09:50:20;;;;;;;10.33;9.23;;;;;;;;;;5094553;28;20200;-81
2022/05/28 09:55:52;;;;;;;11.67;8.53;;;;;;;;;;5060200;28;20196;-81
2022/05/28 09:58:23;;;;;;;12.00;8.87;;;;;;;;;;5094237;28;20187;-80
2022/05/28 10:00:51;;;;;;;10.67;8.43;;;;;;;;;;5094568;28;20184;-81
2022/05/28 10:06:13;;;;;;;8.90;8.10;;;;;;;;;;5094591;28;20700;-80
2022/05/28 10:08:41;;;;;;;8.93;8.13;;;;;;;;;;5093982;28;20681;-81
2022/05/28 10:11:12;;;;;;;7.47;6.75;;;;;;;;;;5093886;28;20200;-81
2022/05/28 10:13:44;;;;;;;8.93;8.02;;;;;;;;;;5093866;28;20318;-80
2022/05/28 10:16:13;;;;;;;8.10;7.37;;;;;;;;;;5094104;28;20196;-80
2022/05/28 10:18:43;;;;;;;9.80;7.80;;;;;;;;;;5093676;28;20197;-80
2022/05/28 10:21:11;;;;;;;9.93;8.10;;;;;;;;;;5093939;28;20207;-80
2022/05/28 10:23:40;;;;;;;8.83;7.77;;;;;;;;;;5093411;28;20568;-80
2022/05/28 10:26:11;;;;;;;8.95;7.72;;;;;;;;;;5093825;28;20297;-80
2022/05/28 10:28:46;;;;;;;9.23;7.82;;;;;;;;;;5093573;28;20192;-80
2022/05/28 10:31:20;;;;;;;8.50;7.63;;;;;;;;;;5093871;28;20180;-80
2022/05/28 10:33:48;;;;;;;10.37;6.90;;;;;;;;;;5093608;28;20649;-80
2022/05/28 10:36:17;;;;;;;12.93;7.50;;;;;;;;;;5093546;28;20200;-81
2022/05/28 10:38:44;;;;;;;10.23;8.00;;;;;;;;;;5093518;28;20239;-80
2022/05/28 10:41:21;;;;;;;10.10;7.40;;;;;;;;;;5093543;28;20725;-80
2022/05/28 10:43:49;;;;;;;10.55;8.18;;;;;;;;;;5093383;28;20241;-80
2022/05/28 10:46:22;;;;;;;8.93;7.82;;;;;;;;;;5093198;28;20310;-80
2022/05/28 10:48:59;;;;;;;9.43;8.48;;;;;;;;;;5093307;28;20199;-80
2022/05/28 10:51:31;;;;;;;9.77;7.32;;;;;;;;;;5093549;28;20245;-80
2022/05/28 10:54:13;;;;;;;8.15;7.47;;;;;;;;;;5092975;28;20202;-81
2022/05/28 10:56:49;;;;;;;11.95;7.90;;;;;;;;;;5093032;28;20233;-81
2022/05/28 10:59:40;;;;;;;9.30;8.40;;;;;;;;;;5091739;28;20564;-81
2022/05/28 11:02:19;;;;;;;13.23;8.00;;;;;;;;;;5088277;28;20196;-81
2022/05/28 11:04:51;;;;;;;10.05;9.02;;;;;;;;;;5092002;28;20706;-80
2022/05/28 11:07:29;;;;;;;15.70;9.15;;;;;;;;;;5091853;28;20224;-81
2022/05/28 11:10:08;;;;;;;11.97;9.43;;;;;;;;;;5091911;28;20184;-80
2022/05/28 11:12:54;;;;;;;9.17;7.83;;;;;;;;;;5091194;28;20224;-80
2022/05/28 11:15:43;;;;;;;12.02;7.18;;;;;;;;;;5096599;28;20188;-81
2022/05/28 11:18:31;;;;;;;6.22;4.82;;;;;;;;;;5111639;28;20187;-80
2022/05/28 11:21:04;;;;;;;10.50;5.82;;;;;;;;;;5111974;28;20223;-81
2022/05/28 11:23:58;;;;;;;7.60;5.00;;;;;;;;;;5111785;28;20244;-81
2022/05/28 11:26:31;;;;;;;9.13;5.60;;;;;;;;;;5111718;28;20212;-80
2022/05/28 11:29:14;;;;;;;9.90;5.40;;;;;;;;;;5111943;28;20203;-81
2022/05/28 11:31:46;;;;;;;9.70;6.20;;;;;;;;;;5111921;28;20179;-81
2022/05/28 11:34:19;;;;;;;8.33;6.67;;;;;;;;;;5111862;28;20541;-81
2022/05/28 11:36:47;;;;;;;7.97;7.10;;;;;;;;;;5111938;28;20180;-81
2022/05/28 11:39:19;;;;;;;15.20;7.80;;;;;;;;;;5111361;28;20272;-80
2022/05/28 11:41:50;;;;;;;12.50;6.73;;;;;;;;;;5111628;28;20636;-80
2022/05/28 11:44:20;;;;;;;9.77;6.93;;;;;;;;;;5111069;28;20188;-80
2022/05/28 11:46:51;;;;;;;12.40;7.60;;;;;;;;;;5111525;28;20295;-81
2022/05/28 11:52:12;;;;;;;12.90;7.93;;;;;;;;;;5111396;28;20179;-80
2022/05/28 11:54:42;;;;;;;15.83;7.70;;;;;;;;;;5111703;28;20187;-81
2022/05/28 11:57:15;;;;;;;10.33;7.63;;;;;;;;;;5111731;28;20256;-81
2022/05/28 11:59:44;;;;;;;9.43;6.83;;;;;;;;;;5111701;28;20275;-80
2022/05/28 12:02:14;;;;;;;10.83;6.70;;;;;;;;;;5111186;28;20202;-81
2022/05/28 12:04:43;;;;;;;16.17;5.53;;;;;;;;;;5111032;28;20244;-80
2022/05/28 12:07:13;;;;;;;9.00;5.57;;;;;;;;;;5111390;28;20741;-80
2022/05/28 12:09:43;;;;;;;10.10;6.30;;;;;;;;;;5111603;28;20203;-81
2022/05/28 12:12:17;;;;;;;6.93;5.27;;;;;;;;;;5110906;28;20248;-80
2022/05/28 12:14:47;;;;;;;14.47;6.33;;;;;;;;;;5111286;28;20191;-81
2022/05/28 12:17:25;;;;;;;8.20;6.30;;;;;;;;;;5111163;28;20198;-81
2022/05/28 12:19:56;;;;;;;9.53;6.37;;;;;;;;;;5111616;28;20214;-81
2022/05/28 12:22:26;;;;;;;11.07;6.10;;;;;;;;;;5110975;28;20223;-80
2022/05/28 12:24:58;;;;;;;10.57;6.07;;;;;;;;;;5111308;28;20180;-80
2022/05/28 12:27:28;;;;;;;9.00;6.00;;;;;;;;;;5111184;28;20522;-81
2022/05/28 12:30:01;;;;;;;6.57;5.17;;;;;;;;;;5110807;28;20200;-81
2022/05/28 12:32:30;;;;;;;10.83;5.97;;;;;;;;;;5110694;28;20187;-81
2022/05/28 12:35:00;;;;;;;9.70;6.00;;;;;;;;;;5111293;28;20252;-81
2022/05/28 12:37:31;;;;;;;8.77;6.10;;;;;;;;;;5110875;28;20298;-81
2022/05/28 12:40:09;;;;;;;12.13;5.37;;;;;;;;;;5110932;28;20184;-81
2022/05/28 12:42:36;;;;;;;10.53;6.87;;;;;;;;;;5111377;28;20237;-81
2022/05/28 12:45:17;;;;;;;10.83;5.87;;;;;;;;;;5110955;28;20199;-81
2022/05/28 12:47:44;;;;;;;8.73;6.47;;;;;;;;;;5110752;28;20604;-81
2022/05/28 12:50:21;;;;;;;13.70;6.53;;;;;;;;;;5110985;28;20628;-80
2022/05/28 12:52:54;;;;;;;8.60;5.17;;;;;;;;;;5110179;28;20187;-81
2022/05/28 12:55:31;;;;;;;10.23;5.77;;;;;;;;;;5119584;27;20274;-81
2022/05/28 12:58:03;;;;;;;10.57;6.00;;;;;;;;;;5133597;27;20678;-81
2022/05/28 13:00:32;;;;;;;11.47;7.00;;;;;;;;;;5135580;27;20187;-81
2022/05/28 13:03:00;;;;;;;7.67;5.90;;;;;;;;;;5124933;27;20896;-82
2022/05/28 13:05:39;;;;;;;9.53;5.70;;;;;;;;;;5114359;28;20206;-82
2022/05/28 13:08:08;;;;;;;10.97;5.77;;;;;;;;;;5114207;28;20214;-81
2022/05/28 13:10:35;;;;;;;7.63;5.90;;;;;;;;;;5114619;28;20199;-82
2022/05/28 13:13:21;;;;;;;15.87;6.57;;;;;;;;;;5113986;28;20223;-81
2022/05/28 13:16:15;;;;;;;8.80;6.10;;;;;;;;;;5114082;28;20735;-81
2022/05/28 13:19:02;;;;;;;7.67;6.10;;;;;;;;;;5114304;28;20229;-81
2022/05/28 13:21:41;;;;;;;13.40;7.03;;;;;;;;;;5114142;28;20252;-81
2022/05/28 13:24:45;;;;;;;71.50;14.00;;;;;;;;;;5113889;28;20982;-80
2022/05/28 13:27:22;;;;;;;7.87;6.03;;;;;;;;;;5114015;28;20219;-81
2022/05/28 13:30:06;;;;;;;10.93;7.37;;;;;;;;;;5114041;28;20188;-81
2022/05/28 13:32:35;;;;;;;12.40;7.23;;;;;;;;;;5117164;27;20255;-81
2022/05/28 13:35:05;;;;;;;12.63;8.67;;;;;;;;;;5114885;27;20621;-82
2022/05/28 13:37:33;;;;;;;11.37;9.50;;;;;;;;;;5114042;28;20187;-80
2022/05/28 13:40:01;;;;;;;13.13;8.40;;;;;;;;;;5114256;27;20256;-80
2022/05/28 13:42:29;;;;;;;15.50;8.63;;;;;;;;;;5113361;28;20199;-81
2022/05/28 13:44:57;;;;;;;13.47;7.57;;;;;;;;;;5114244;28;20199;-80
2022/05/28 13:47:27;;;;;;;11.87;9.73;;;;;;;;;;5113524;28;20219;-81
2022/05/28 13:49:55;;;;;;;13.00;9.13;;;;;;;;;;5114215;28;20191;-81
2022/05/28 13:52:23;;;;;;;13.87;8.83;;;;;;;;;;5113621;28;20225;-81
2022/05/28 13:54:56;;;;;;;14.80;8.77;;;;;;;;;;5113082;28;20655;-81
2022/05/28 13:57:35;;;;;;;8.17;7.43;;;;;;;;;;5113608;28;20190;-80
2022/05/28 14:00:02;;;;;;;14.47;9.80;;;;;;;;;;5113945;27;20697;-81
2022/05/28 14:02:29;;;;;;;10.40;9.47;;;;;;;;;;5113593;28;20252;-80
2022/05/28 14:04:58;;;;;;;12.40;10.00;;;;;;;;;;5113620;27;20248;-81
2022/05/28 14:07:27;;;;;;;13.20;9.97;;;;;;;;;;5112829;28;20223;-80
2022/05/28 14:09:56;;;;;;;10.93;9.87;;;;;;;;;;5113236;28;20290;-80
2022/05/28 14:12:30;;;;;;;15.07;11.43;;;;;;;;;;5112821;28;20231;-80
2022/05/28 14:14:57;;;;;;;13.87;9.63;;;;;;;;;;5113621;28;20209;-81
2022/05/28 14:17:30;;;;;;;11.23;9.80;;;;;;;;;;5092781;28;20197;-80
2022/05/28 14:19:58;;;;;;;10.57;9.43;;;;;;;;;;5092904;28;20267;-80
2022/05/28 14:22:31;;;;;;;10.70;9.60;;;;;;;;;;5092340;28;20249;-81
2022/05/28 14:25:01;;;;;;;11.23;9.77;;;;;;;;;;5092885;28;20188;-80
2022/05/28 14:27:30;;;;;;;13.13;10.80;;;;;;;;;;5092763;28;20729;-80
2022/05/28 14:29:57;;;;;;;14.73;12.00;;;;;;;;;;5092955;28;20207;-81
2022/05/28 14:32:29;;;;;;;9.47;8.67;;;;;;;;;;5092556;28;20192;-81
2022/05/28 14:34:57;;;;;;;14.30;9.43;;;;;;;;;;5092201;28;20212;-81
2022/05/28 14:37:26;;;;;;;12.07;8.00;;;;;;;;;;5092661;28;20305;-80
2022/05/28 14:39:53;;;;;;;9.40;7.83;;;;;;;;;;5092652;28;20200;-81
2022/05/28 14:42:28;;;;;;;11.37;7.77;;;;;;;;;;5092651;28;20234;-80
2022/05/28 14:44:55;;;;;;;9.03;7.67;;;;;;;;;;5106153;28;20248;-80
2022/05/28 14:47:28;;;;;;;9.63;8.77;;;;;;;;;;5112471;28;20220;-81
2022/05/28 14:49:57;;;;;;;10.30;9.30;;;;;;;;;;5092638;28;20216;-80
2022/05/28 14:52:32;;;;;;;10.37;9.27;;;;;;;;;;5092210;28;20200;-80
2022/05/28 14:55:00;;;;;;;9.87;8.67;;;;;;;;;;5092168;28;20245;-81
2022/05/28 14:57:35;;;;;;;10.37;9.17;;;;;;;;;;5092014;28;20208;-80
2022/05/28 15:00:06;;;;;;;9.87;8.87;;;;;;;;;;5091735;28;20215;-80
2022/05/28 15:02:34;;;;;;;11.07;8.27;;;;;;;;;;5092007;28;20184;-80
2022/05/28 15:05:08;;;;;;;10.50;8.73;;;;;;;;;;5114838;27;20208;-80
2022/05/28 15:07:36;;;;;;;10.90;8.60;;;;;;;;;;5112248;28;20229;-81
2022/05/28 15:10:05;;;;;;;10.20;9.27;;;;;;;;;;5112474;28;20638;-81